sensor_id;sensor_type;location;lat;lon;timestamp;temperature;humidity
11091;DHT22;5599;52.210;21.046;2022-11-20T00:01:54;-3.70;64.60
11091;DHT22;5599;52.210;21.046;2022-11-20T00:04:23;-3.70;99.90
11091;DHT22;5599;52.210;21.046;2022-11-20T00:06:53;-3.70;1.00
11091;DHT22;5599;52.210;21.046;2022-11-20T00:09:23;-3.70;1.00
11091;DHT22;5599;52.210;21.046;2022-11-20T00:11:52;-3.70;99.90
11091;DHT22;5599;52.210;21.046;2022-11-20T00:14:22;-3.60;47.30
11091;DHT22;5599;52.210;21.046;2022-11-20T00:16:54;-3.60;1.00
11091;DHT22;5599;52.210;21.046;2022-11-20T00:19:24;-3.60;99.90
11091;DHT22;5599;52.210;21.046;2022-11-20T00:21:53;-3.60;1.00
11091;DHT22;5599;52.210;21.046;2022-11-20T00:24:23;-3.60;1.00
11091;DHT22;5599;52.210;21.046;2022-11-20T00:26:52;-3.80;1.00
11091;DHT22;5599;52.210;21.046;2022-11-20T00:29:21;-3.80;1.00
11091;DHT22;5599;52.210;21.046;2022-11-20T00:31:50;-3.80;5.50
11091;DHT22;5599;52.210;21.046;2022-11-20T00:34:21;-3.80;99.90
11091;DHT22;5599;52.210;21.046;2022-11-20T00:36:51;-3.70;1.00
11091;DHT22;5599;52.210;21.046;2022-11-20T00:39:20;-3.60;99.90
11091;DHT22;5599;52.210;21.046;2022-11-20T00:41:50;-3.70;99.90
11091;DHT22;5599;52.210;21.046;2022-11-20T00:44:19;-3.80;99.90
11091;DHT22;5599;52.210;21.046;2022-11-20T00:46:48;-3.80;99.90
11091;DHT22;5599;52.210;21.046;2022-11-20T00:49:17;-3.70;1.00
11091;DHT22;5599;52.210;21.046;2022-11-20T00:51:48;-3.70;1.00
11091;DHT22;5599;52.210;21.046;2022-11-20T00:54:17;-3.70;1.00
11091;DHT22;5599;52.210;21.046;2022-11-20T00:56:47;-3.60;1.00
11091;DHT22;5599;52.210;21.046;2022-11-20T00:59:16;-3.60;1.00
11091;DHT22;5599;52.210;21.046;2022-11-20T01:01:46;-3.40;1.00
11091;DHT22;5599;52.210;21.046;2022-11-20T01:04:16;-3.40;1.00
11091;DHT22;5599;52.210;21.046;2022-11-20T01:06:46;-3.50;1.00
11091;DHT22;5599;52.210;21.046;2022-11-20T01:09:17;-3.40;98.40
11091;DHT22;5599;52.210;21.046;2022-11-20T01:11:47;-3.40;1.00
11091;DHT22;5599;52.210;21.046;2022-11-20T01:14:19;-3.40;99.90
11091;DHT22;5599;52.210;21.046;2022-11-20T01:16:50;-3.40;99.90
11091;DHT22;5599;52.210;21.046;2022-11-20T01:19:21;-3.40;99.90
11091;DHT22;5599;52.210;21.046;2022-11-20T01:21:53;-3.40;99.90
11091;DHT22;5599;52.210;21.046;2022-11-20T01:24:25;-3.50;1.00
11091;DHT22;5599;52.210;21.046;2022-11-20T01:26:54;-3.50;99.90
11091;DHT22;5599;52.210;21.046;2022-11-20T01:29:25;-3.60;1.00
11091;DHT22;5599;52.210;21.046;2022-11-20T01:31:54;-3.70;1.00
11091;DHT22;5599;52.210;21.046;2022-11-20T01:34:23;-3.70;1.00
11091;DHT22;5599;52.210;21.046;2022-11-20T01:36:53;-3.70;1.00
11091;DHT22;5599;52.210;21.046;2022-11-20T01:39:25;-3.70;99.90
11091;DHT22;5599;52.210;21.046;2022-11-20T01:41:56;-3.80;1.00
11091;DHT22;5599;52.210;21.046;2022-11-20T01:44:51;-3.80;1.00
11091;DHT22;5599;52.210;21.046;2022-11-20T01:47:25;-3.80;1.00
11091;DHT22;5599;52.210;21.046;2022-11-20T01:49:59;-3.70;99.90
11091;DHT22;5599;52.210;21.046;2022-11-20T01:52:34;-3.80;1.00
11091;DHT22;5599;52.210;21.046;2022-11-20T01:55:08;-3.90;1.00
11091;DHT22;5599;52.210;21.046;2022-11-20T01:57:39;-3.80;1.00
11091;DHT22;5599;52.210;21.046;2022-11-20T02:00:11;-3.60;1.00
11091;DHT22;5599;52.210;21.046;2022-11-20T02:02:43;-3.60;99.90
11091;DHT22;5599;52.210;21.046;2022-11-20T02:05:19;-3.60;99.90
11091;DHT22;5599;52.210;21.046;2022-11-20T02:07:52;-3.60;99.90
11091;DHT22;5599;52.210;21.046;2022-11-20T02:10:25;-3.50;1.00
11091;DHT22;5599;52.210;21.046;2022-11-20T02:12:55;-3.40;1.00
11091;DHT22;5599;52.210;21.046;2022-11-20T02:15:43;-3.50;1.00
11091;DHT22;5599;52.210;21.046;2022-11-20T02:18:14;-3.40;1.00
11091;DHT22;5599;52.210;21.046;2022-11-20T02:20:47;-3.30;99.90
11091;DHT22;5599;52.210;21.046;2022-11-20T02:23:22;-3.20;1.00
11091;DHT22;5599;52.210;21.046;2022-11-20T02:25:55;-3.20;1.00
11091;DHT22;5599;52.210;21.046;2022-11-20T02:28:24;-3.20;99.90
11091;DHT22;5599;52.210;21.046;2022-11-20T02:30:54;-3.10;1.00
11091;DHT22;5599;52.210;21.046;2022-11-20T02:33:23;-3.00;99.90
11091;DHT22;5599;52.210;21.046;2022-11-20T02:35:52;-3.10;99.90
11091;DHT22;5599;52.210;21.046;2022-11-20T02:38:21;-3.10;1.00
11091;DHT22;5599;52.210;21.046;2022-11-20T02:40:50;-3.10;99.90
11091;DHT22;5599;52.210;21.046;2022-11-20T02:43:23;-3.00;99.90
11091;DHT22;5599;52.210;21.046;2022-11-20T02:45:53;-3.10;89.80
11091;DHT22;5599;52.210;21.046;2022-11-20T02:48:22;-3.10;99.90
11091;DHT22;5599;52.210;21.046;2022-11-20T02:50:51;-3.10;2.80
11091;DHT22;5599;52.210;21.046;2022-11-20T02:53:20;-3.10;99.90
11091;DHT22;5599;52.210;21.046;2022-11-20T02:55:50;-3.10;1.00
11091;DHT22;5599;52.210;21.046;2022-11-20T02:58:19;-3.20;99.90
11091;DHT22;5599;52.210;21.046;2022-11-20T03:00:53;-3.20;1.00
11091;DHT22;5599;52.210;21.046;2022-11-20T03:03:23;-3.20;99.90
11091;DHT22;5599;52.210;21.046;2022-11-20T03:05:53;-3.20;1.00
11091;DHT22;5599;52.210;21.046;2022-11-20T03:08:24;-3.20;99.90
11091;DHT22;5599;52.210;21.046;2022-11-20T03:10:54;-3.30;44.00
11091;DHT22;5599;52.210;21.046;2022-11-20T03:13:25;-3.30;99.90
11091;DHT22;5599;52.210;21.046;2022-11-20T03:15:55;-3.30;1.00
11091;DHT22;5599;52.210;21.046;2022-11-20T03:18:27;-3.40;99.90
11091;DHT22;5599;52.210;21.046;2022-11-20T03:20:57;-3.30;1.00
11091;DHT22;5599;52.210;21.046;2022-11-20T03:23:29;-3.40;99.90
11091;DHT22;5599;52.210;21.046;2022-11-20T03:26:11;-3.50;61.90
11091;DHT22;5599;52.210;21.046;2022-11-20T03:28:41;-3.70;1.00
11091;DHT22;5599;52.210;21.046;2022-11-20T03:31:13;-3.80;99.90
11091;DHT22;5599;52.210;21.046;2022-11-20T03:33:42;-3.90;1.00
11091;DHT22;5599;52.210;21.046;2022-11-20T03:36:13;-3.90;99.90
11091;DHT22;5599;52.210;21.046;2022-11-20T03:38:42;-3.80;1.00
11091;DHT22;5599;52.210;21.046;2022-11-20T03:41:13;-3.70;1.00
11091;DHT22;5599;52.210;21.046;2022-11-20T03:43:47;-3.80;1.00
11091;DHT22;5599;52.210;21.046;2022-11-20T03:46:18;-3.80;1.00
11091;DHT22;5599;52.210;21.046;2022-11-20T03:48:48;-3.80;1.00
11091;DHT22;5599;52.210;21.046;2022-11-20T03:51:20;-3.70;1.00
11091;DHT22;5599;52.210;21.046;2022-11-20T03:53:50;-3.70;1.00
11091;DHT22;5599;52.210;21.046;2022-11-20T03:56:22;-3.60;1.00
11091;DHT22;5599;52.210;21.046;2022-11-20T03:58:52;-3.60;1.00
11091;DHT22;5599;52.210;21.046;2022-11-20T04:01:25;-3.50;99.90
11091;DHT22;5599;52.210;21.046;2022-11-20T04:03:55;-3.60;1.00
11091;DHT22;5599;52.210;21.046;2022-11-20T04:06:26;-3.70;88.10
11091;DHT22;5599;52.210;21.046;2022-11-20T04:08:56;-3.60;99.90
11091;DHT22;5599;52.210;21.046;2022-11-20T04:11:28;-3.80;99.90
11091;DHT22;5599;52.210;21.046;2022-11-20T04:13:59;-3.80;99.90
11091;DHT22;5599;52.210;21.046;2022-11-20T04:16:31;-3.80;1.00
11091;DHT22;5599;52.210;21.046;2022-11-20T04:19:03;-3.80;1.00
11091;DHT22;5599;52.210;21.046;2022-11-20T04:21:32;-3.90;1.00
11091;DHT22;5599;52.210;21.046;2022-11-20T04:24:03;-3.80;1.00
11091;DHT22;5599;52.210;21.046;2022-11-20T04:26:32;-3.90;1.00
11091;DHT22;5599;52.210;21.046;2022-11-20T04:29:02;-3.90;1.00
11091;DHT22;5599;52.210;21.046;2022-11-20T04:31:34;-3.90;1.00
11091;DHT22;5599;52.210;21.046;2022-11-20T04:34:06;-3.90;1.00
11091;DHT22;5599;52.210;21.046;2022-11-20T04:36:35;-3.90;1.00
11091;DHT22;5599;52.210;21.046;2022-11-20T04:39:06;-4.10;1.00
11091;DHT22;5599;52.210;21.046;2022-11-20T04:41:36;-4.10;1.00
11091;DHT22;5599;52.210;21.046;2022-11-20T04:44:06;-4.10;1.00
11091;DHT22;5599;52.210;21.046;2022-11-20T04:46:39;-4.10;1.00
11091;DHT22;5599;52.210;21.046;2022-11-20T04:49:09;-4.20;71.70
11091;DHT22;5599;52.210;21.046;2022-11-20T04:51:39;-4.20;92.30
11091;DHT22;5599;52.210;21.046;2022-11-20T04:54:10;-4.20;1.00
11091;DHT22;5599;52.210;21.046;2022-11-20T04:56:40;-4.20;1.00
11091;DHT22;5599;52.210;21.046;2022-11-20T04:59:09;-4.20;23.70
11091;DHT22;5599;52.210;21.046;2022-11-20T05:01:40;-4.20;60.90
11091;DHT22;5599;52.210;21.046;2022-11-20T05:04:09;-4.10;7.80
11091;DHT22;5599;52.210;21.046;2022-11-20T05:06:38;-4.20;1.00
11091;DHT22;5599;52.210;21.046;2022-11-20T05:09:07;-4.20;1.00
11091;DHT22;5599;52.210;21.046;2022-11-20T05:11:37;-4.10;1.00
11091;DHT22;5599;52.210;21.046;2022-11-20T05:14:06;-4.10;1.00
11091;DHT22;5599;52.210;21.046;2022-11-20T05:16:35;-4.10;1.00
11091;DHT22;5599;52.210;21.046;2022-11-20T05:19:06;-4.10;99.90
11091;DHT22;5599;52.210;21.046;2022-11-20T05:21:36;-4.10;99.90
11091;DHT22;5599;52.210;21.046;2022-11-20T05:24:06;-4.00;99.90
11091;DHT22;5599;52.210;21.046;2022-11-20T05:26:35;-4.00;99.90
11091;DHT22;5599;52.210;21.046;2022-11-20T05:29:04;-4.00;1.00
11091;DHT22;5599;52.210;21.046;2022-11-20T05:31:33;-4.10;1.00
11091;DHT22;5599;52.210;21.046;2022-11-20T05:34:03;-4.10;1.00
11091;DHT22;5599;52.210;21.046;2022-11-20T05:36:34;-4.10;1.00
11091;DHT22;5599;52.210;21.046;2022-11-20T05:39:04;-4.20;1.00
11091;DHT22;5599;52.210;21.046;2022-11-20T05:41:33;-4.10;1.00
11091;DHT22;5599;52.210;21.046;2022-11-20T05:44:03;-4.20;1.00
11091;DHT22;5599;52.210;21.046;2022-11-20T05:46:32;-4.30;1.00
11091;DHT22;5599;52.210;21.046;2022-11-20T05:49:02;-4.30;1.00
11091;DHT22;5599;52.210;21.046;2022-11-20T05:51:31;-4.30;1.00
11091;DHT22;5599;52.210;21.046;2022-11-20T05:54:01;-4.40;94.00
11091;DHT22;5599;52.210;21.046;2022-11-20T05:56:30;-4.30;99.90
11091;DHT22;5599;52.210;21.046;2022-11-20T05:59:00;-4.30;99.90
11091;DHT22;5599;52.210;21.046;2022-11-20T06:01:29;-4.30;99.90
11091;DHT22;5599;52.210;21.046;2022-11-20T06:03:59;-4.20;99.90
11091;DHT22;5599;52.210;21.046;2022-11-20T06:06:28;-4.20;99.90
11091;DHT22;5599;52.210;21.046;2022-11-20T06:08:57;-4.30;1.00
11091;DHT22;5599;52.210;21.046;2022-11-20T06:11:28;-4.30;1.00
11091;DHT22;5599;52.210;21.046;2022-11-20T06:13:57;-4.20;45.90
11091;DHT22;5599;52.210;21.046;2022-11-20T06:16:27;-4.20;99.90
11091;DHT22;5599;52.210;21.046;2022-11-20T06:18:56;-4.10;1.00
11091;DHT22;5599;52.210;21.046;2022-11-20T06:21:25;-4.10;1.00
11091;DHT22;5599;52.210;21.046;2022-11-20T06:23:55;-4.10;1.00
11091;DHT22;5599;52.210;21.046;2022-11-20T06:26:25;-4.00;1.00
11091;DHT22;5599;52.210;21.046;2022-11-20T06:28:56;-4.00;99.90
11091;DHT22;5599;52.210;21.046;2022-11-20T06:31:26;-4.00;1.00
11091;DHT22;5599;52.210;21.046;2022-11-20T06:33:55;-4.10;1.00
11091;DHT22;5599;52.210;21.046;2022-11-20T06:36:24;-4.10;1.00
11091;DHT22;5599;52.210;21.046;2022-11-20T06:38:54;-4.00;99.90
11091;DHT22;5599;52.210;21.046;2022-11-20T06:41:23;-4.00;1.00
11091;DHT22;5599;52.210;21.046;2022-11-20T06:43:53;-4.00;99.90
11091;DHT22;5599;52.210;21.046;2022-11-20T06:46:23;-4.00;1.00
11091;DHT22;5599;52.210;21.046;2022-11-20T06:48:52;-4.00;99.90
11091;DHT22;5599;52.210;21.046;2022-11-20T06:51:22;-3.90;1.00
11091;DHT22;5599;52.210;21.046;2022-11-20T06:53:51;-4.00;1.00
11091;DHT22;5599;52.210;21.046;2022-11-20T06:56:21;-4.00;57.80
11091;DHT22;5599;52.210;21.046;2022-11-20T06:58:51;-4.00;99.90
11091;DHT22;5599;52.210;21.046;2022-11-20T07:01:20;-3.90;1.00
11091;DHT22;5599;52.210;21.046;2022-11-20T07:03:54;-3.90;99.90
11091;DHT22;5599;52.210;21.046;2022-11-20T07:06:23;-3.80;1.00
11091;DHT22;5599;52.210;21.046;2022-11-20T07:08:52;-3.70;99.90
11091;DHT22;5599;52.210;21.046;2022-11-20T07:11:21;-3.70;7.60
11091;DHT22;5599;52.210;21.046;2022-11-20T07:13:51;-3.70;1.00
11091;DHT22;5599;52.210;21.046;2022-11-20T07:16:22;-3.50;99.90
11091;DHT22;5599;52.210;21.046;2022-11-20T07:18:56;-3.40;45.90
11091;DHT22;5599;52.210;21.046;2022-11-20T07:21:26;-3.00;99.90
11091;DHT22;5599;52.210;21.046;2022-11-20T07:23:55;-2.60;99.90
11091;DHT22;5599;52.210;21.046;2022-11-20T07:26:24;-2.20;52.30
11091;DHT22;5599;52.210;21.046;2022-11-20T07:28:53;-1.80;1.00
11091;DHT22;5599;52.210;21.046;2022-11-20T07:31:22;-1.60;1.00
11091;DHT22;5599;52.210;21.046;2022-11-20T07:33:55;-1.30;1.00
11091;DHT22;5599;52.210;21.046;2022-11-20T07:36:24;-1.00;99.90
11091;DHT22;5599;52.210;21.046;2022-11-20T07:38:53;-0.80;1.00
11091;DHT22;5599;52.210;21.046;2022-11-20T07:41:23;-0.40;1.00
11091;DHT22;5599;52.210;21.046;2022-11-20T07:43:52;0.00;1.00
11091;DHT22;5599;52.210;21.046;2022-11-20T07:46:22;0.30;96.60
11091;DHT22;5599;52.210;21.046;2022-11-20T07:48:54;0.70;92.90
11091;DHT22;5599;52.210;21.046;2022-11-20T07:51:26;1.10;1.00
11091;DHT22;5599;52.210;21.046;2022-11-20T07:53:58;1.40;18.90
11091;DHT22;5599;52.210;21.046;2022-11-20T07:56:27;1.60;1.00
11091;DHT22;5599;52.210;21.046;2022-11-20T07:58:57;1.90;1.00
11091;DHT22;5599;52.210;21.046;2022-11-20T08:01:26;2.20;14.80
11091;DHT22;5599;52.210;21.046;2022-11-20T08:03:57;2.40;78.60
11091;DHT22;5599;52.210;21.046;2022-11-20T08:06:26;2.50;99.90
11091;DHT22;5599;52.210;21.046;2022-11-20T08:08:55;2.70;1.00
11091;DHT22;5599;52.210;21.046;2022-11-20T08:11:25;2.80;99.90
11091;DHT22;5599;52.210;21.046;2022-11-20T08:14:12;3.00;1.00
11091;DHT22;5599;52.210;21.046;2022-11-20T08:16:43;3.30;99.90
11091;DHT22;5599;52.210;21.046;2022-11-20T08:19:15;3.20;1.00
11091;DHT22;5599;52.210;21.046;2022-11-20T08:21:45;3.40;99.90
11091;DHT22;5599;52.210;21.046;2022-11-20T08:24:15;3.50;1.00
11091;DHT22;5599;52.210;21.046;2022-11-20T08:26:44;3.50;99.90
11091;DHT22;5599;52.210;21.046;2022-11-20T08:29:14;3.20;1.00
11091;DHT22;5599;52.210;21.046;2022-11-20T08:31:43;3.20;1.00
11091;DHT22;5599;52.210;21.046;2022-11-20T08:34:14;3.20;2.70
11091;DHT22;5599;52.210;21.046;2022-11-20T08:36:45;3.50;99.90
11091;DHT22;5599;52.210;21.046;2022-11-20T08:39:15;3.90;99.90
11091;DHT22;5599;52.210;21.046;2022-11-20T08:41:44;3.40;99.90
11091;DHT22;5599;52.210;21.046;2022-11-20T08:44:14;3.30;1.00
11091;DHT22;5599;52.210;21.046;2022-11-20T08:46:43;3.10;1.00
11091;DHT22;5599;52.210;21.046;2022-11-20T08:49:21;2.90;1.00
11091;DHT22;5599;52.210;21.046;2022-11-20T08:51:57;2.90;99.90
11091;DHT22;5599;52.210;21.046;2022-11-20T08:54:30;3.10;1.00
11091;DHT22;5599;52.210;21.046;2022-11-20T08:57:02;2.60;1.00
11091;DHT22;5599;52.210;21.046;2022-11-20T08:59:32;2.80;37.70
11091;DHT22;5599;52.210;21.046;2022-11-20T09:02:22;2.60;99.90
11091;DHT22;5599;52.210;21.046;2022-11-20T09:05:03;2.60;99.90
11091;DHT22;5599;52.210;21.046;2022-11-20T09:07:39;2.80;99.90
11091;DHT22;5599;52.210;21.046;2022-11-20T09:10:12;3.00;99.90
11091;DHT22;5599;52.210;21.046;2022-11-20T09:12:51;2.70;1.00
11091;DHT22;5599;52.210;21.046;2022-11-20T09:15:24;2.60;99.90
11091;DHT22;5599;52.210;21.046;2022-11-20T09:17:58;2.70;99.90
11091;DHT22;5599;52.210;21.046;2022-11-20T09:20:51;2.60;1.40
11091;DHT22;5599;52.210;21.046;2022-11-20T09:23:38;2.30;99.90
11091;DHT22;5599;52.210;21.046;2022-11-20T09:26:30;1.50;1.00
11091;DHT22;5599;52.210;21.046;2022-11-20T09:29:04;1.50;1.00
11091;DHT22;5599;52.210;21.046;2022-11-20T09:31:34;1.80;1.00
11091;DHT22;5599;52.210;21.046;2022-11-20T09:34:04;2.00;1.00
11091;DHT22;5599;52.210;21.046;2022-11-20T09:36:35;2.20;1.00
11091;DHT22;5599;52.210;21.046;2022-11-20T09:39:04;2.30;1.00
11091;DHT22;5599;52.210;21.046;2022-11-20T09:41:46;2.40;99.90
11091;DHT22;5599;52.210;21.046;2022-11-20T09:44:28;2.10;1.00
11091;DHT22;5599;52.210;21.046;2022-11-20T09:47:05;2.30;1.00
11091;DHT22;5599;52.210;21.046;2022-11-20T09:49:50;2.50;1.00
11091;DHT22;5599;52.210;21.046;2022-11-20T09:52:31;2.60;1.00
11091;DHT22;5599;52.210;21.046;2022-11-20T09:55:02;2.80;1.00
11091;DHT22;5599;52.210;21.046;2022-11-20T09:57:35;2.60;99.90
11091;DHT22;5599;52.210;21.046;2022-11-20T10:00:11;2.50;1.00
11091;DHT22;5599;52.210;21.046;2022-11-20T10:02:45;2.40;1.00
11091;DHT22;5599;52.210;21.046;2022-11-20T10:05:19;2.60;1.00
11091;DHT22;5599;52.210;21.046;2022-11-20T10:07:55;2.80;17.60
11091;DHT22;5599;52.210;21.046;2022-11-20T10:10:33;3.00;99.90
11091;DHT22;5599;52.210;21.046;2022-11-20T10:13:20;2.90;86.20
11091;DHT22;5599;52.210;21.046;2022-11-20T10:16:02;2.90;1.00
11091;DHT22;5599;52.210;21.046;2022-11-20T10:18:42;2.70;99.90
11091;DHT22;5599;52.210;21.046;2022-11-20T10:21:20;2.70;1.00
11091;DHT22;5599;52.210;21.046;2022-11-20T10:24:07;2.80;99.90
11091;DHT22;5599;52.210;21.046;2022-11-20T10:26:49;2.80;1.00
11091;DHT22;5599;52.210;21.046;2022-11-20T10:29:27;2.80;1.00
11091;DHT22;5599;52.210;21.046;2022-11-20T10:32:01;2.80;1.00
11091;DHT22;5599;52.210;21.046;2022-11-20T10:34:35;2.90;1.00
11091;DHT22;5599;52.210;21.046;2022-11-20T10:37:12;2.90;1.00
11091;DHT22;5599;52.210;21.046;2022-11-20T10:39:50;2.70;1.00
11091;DHT22;5599;52.210;21.046;2022-11-20T10:42:30;2.70;1.00
11091;DHT22;5599;52.210;21.046;2022-11-20T10:45:09;2.80;1.00
11091;DHT22;5599;52.210;21.046;2022-11-20T10:47:42;2.90;1.00
11091;DHT22;5599;52.210;21.046;2022-11-20T10:50:16;2.90;1.00
11091;DHT22;5599;52.210;21.046;2022-11-20T10:52:54;2.80;1.00
11091;DHT22;5599;52.210;21.046;2022-11-20T10:55:33;2.80;1.00
11091;DHT22;5599;52.210;21.046;2022-11-20T10:58:14;2.70;1.00
11091;DHT22;5599;52.210;21.046;2022-11-20T11:00:43;2.80;99.90
11091;DHT22;5599;52.210;21.046;2022-11-20T11:03:22;2.90;1.00
11091;DHT22;5599;52.210;21.046;2022-11-20T11:05:56;3.00;9.90
11091;DHT22;5599;52.210;21.046;2022-11-20T11:08:34;3.00;37.30
11091;DHT22;5599;52.210;21.046;2022-11-20T11:11:18;3.10;1.00
11091;DHT22;5599;52.210;21.046;2022-11-20T11:13:47;3.20;1.00
11091;DHT22;5599;52.210;21.046;2022-11-20T11:16:21;3.30;1.00
11091;DHT22;5599;52.210;21.046;2022-11-20T11:18:51;3.40;1.00
11091;DHT22;5599;52.210;21.046;2022-11-20T11:21:22;3.40;99.90
11091;DHT22;5599;52.210;21.046;2022-11-20T11:24:00;3.50;1.00
11091;DHT22;5599;52.210;21.046;2022-11-20T11:26:57;3.40;1.00
11091;DHT22;5599;52.210;21.046;2022-11-20T11:29:27;3.50;1.00
11091;DHT22;5599;52.210;21.046;2022-11-20T11:32:06;3.50;1.00
11091;DHT22;5599;52.210;21.046;2022-11-20T11:34:36;3.50;1.00
11091;DHT22;5599;52.210;21.046;2022-11-20T11:37:13;3.50;1.00
11091;DHT22;5599;52.210;21.046;2022-11-20T11:39:46;3.60;1.00
11091;DHT22;5599;52.210;21.046;2022-11-20T11:42:41;3.60;1.00
11091;DHT22;5599;52.210;21.046;2022-11-20T11:45:14;3.50;1.00
11091;DHT22;5599;52.210;21.046;2022-11-20T11:47:46;3.70;1.00
11091;DHT22;5599;52.210;21.046;2022-11-20T11:50:19;3.70;1.00
11091;DHT22;5599;52.210;21.046;2022-11-20T11:53:03;3.50;1.00
11091;DHT22;5599;52.210;21.046;2022-11-20T11:55:38;3.40;1.00
11091;DHT22;5599;52.210;21.046;2022-11-20T11:58:27;3.50;99.90
11091;DHT22;5599;52.210;21.046;2022-11-20T12:01:02;3.30;99.90
11091;DHT22;5599;52.210;21.046;2022-11-20T12:03:36;2.90;1.00
11091;DHT22;5599;52.210;21.046;2022-11-20T12:06:10;2.80;1.00
11091;DHT22;5599;52.210;21.046;2022-11-20T12:08:44;2.80;1.00
11091;DHT22;5599;52.210;21.046;2022-11-20T12:11:20;2.50;1.00
11091;DHT22;5599;52.210;21.046;2022-11-20T12:13:56;2.40;54.70
11091;DHT22;5599;52.210;21.046;2022-11-20T12:16:31;2.40;20.20
11091;DHT22;5599;52.210;21.046;2022-11-20T12:19:07;2.30;99.90
11091;DHT22;5599;52.210;21.046;2022-11-20T12:21:45;2.40;99.90
11091;DHT22;5599;52.210;21.046;2022-11-20T12:24:33;2.30;99.90
11091;DHT22;5599;52.210;21.046;2022-11-20T12:27:36;2.20;1.00
11091;DHT22;5599;52.210;21.046;2022-11-20T12:30:12;2.30;99.90
11091;DHT22;5599;52.210;21.046;2022-11-20T12:35:58;2.30;99.90
11091;DHT22;5599;52.210;21.046;2022-11-20T12:38:50;2.30;99.90
11091;DHT22;5599;52.210;21.046;2022-11-20T12:41:40;2.40;99.90
11091;DHT22;5599;52.210;21.046;2022-11-20T12:47:51;2.50;99.90
11091;DHT22;5599;52.210;21.046;2022-11-20T12:50:32;2.50;99.90
11091;DHT22;5599;52.210;21.046;2022-11-20T12:53:33;2.50;99.90
11091;DHT22;5599;52.210;21.046;2022-11-20T12:56:18;2.40;99.90
11091;DHT22;5599;52.210;21.046;2022-11-20T12:58:58;2.30;1.00
11091;DHT22;5599;52.210;21.046;2022-11-20T13:01:37;2.30;99.90
11091;DHT22;5599;52.210;21.046;2022-11-20T13:04:24;2.20;1.00
11091;DHT22;5599;52.210;21.046;2022-11-20T13:06:56;2.00;1.00
11091;DHT22;5599;52.210;21.046;2022-11-20T13:09:28;1.80;99.90
11091;DHT22;5599;52.210;21.046;2022-11-20T13:12:05;1.80;99.90
11091;DHT22;5599;52.210;21.046;2022-11-20T13:14:44;1.60;1.00
11091;DHT22;5599;52.210;21.046;2022-11-20T13:17:20;1.50;1.00
11091;DHT22;5599;52.210;21.046;2022-11-20T13:19:57;1.50;1.00
11091;DHT22;5599;52.210;21.046;2022-11-20T13:22:43;1.40;1.00
11091;DHT22;5599;52.210;21.046;2022-11-20T13:25:23;1.30;99.90
11091;DHT22;5599;52.210;21.046;2022-11-20T13:27:56;1.50;1.00
11091;DHT22;5599;52.210;21.046;2022-11-20T13:30:29;1.70;1.00
11091;DHT22;5599;52.210;21.046;2022-11-20T13:33:08;2.00;1.00
11091;DHT22;5599;52.210;21.046;2022-11-20T13:35:42;1.90;99.90
11091;DHT22;5599;52.210;21.046;2022-11-20T13:38:14;1.90;99.90
11091;DHT22;5599;52.210;21.046;2022-11-20T13:40:52;2.00;99.90
11091;DHT22;5599;52.210;21.046;2022-11-20T13:43:51;2.10;99.90
11091;DHT22;5599;52.210;21.046;2022-11-20T13:46:21;2.00;99.90
11091;DHT22;5599;52.210;21.046;2022-11-20T13:48:55;2.00;99.90
11091;DHT22;5599;52.210;21.046;2022-11-20T13:51:36;1.80;99.90
11091;DHT22;5599;52.210;21.046;2022-11-20T13:54:28;1.70;1.00
11091;DHT22;5599;52.210;21.046;2022-11-20T13:57:10;1.60;1.00
11091;DHT22;5599;52.210;21.046;2022-11-20T14:00:09;1.50;1.00
11091;DHT22;5599;52.210;21.046;2022-11-20T14:02:43;1.60;1.00
11091;DHT22;5599;52.210;21.046;2022-11-20T14:05:22;1.60;99.90
11091;DHT22;5599;52.210;21.046;2022-11-20T14:07:56;1.50;1.00
11091;DHT22;5599;52.210;21.046;2022-11-20T14:10:30;1.50;99.90
11091;DHT22;5599;52.210;21.046;2022-11-20T14:13:10;1.40;99.90
11091;DHT22;5599;52.210;21.046;2022-11-20T14:15:40;1.40;99.90
11091;DHT22;5599;52.210;21.046;2022-11-20T14:18:13;1.30;1.00
11091;DHT22;5599;52.210;21.046;2022-11-20T14:20:44;1.20;1.00
11091;DHT22;5599;52.210;21.046;2022-11-20T14:23:26;1.10;99.90
11091;DHT22;5599;52.210;21.046;2022-11-20T14:25:58;1.10;99.90
11091;DHT22;5599;52.210;21.046;2022-11-20T14:28:34;1.10;99.90
11091;DHT22;5599;52.210;21.046;2022-11-20T14:31:08;1.20;1.00
11091;DHT22;5599;52.210;21.046;2022-11-20T14:33:47;1.00;1.00
11091;DHT22;5599;52.210;21.046;2022-11-20T14:36:19;1.00;99.90
11091;DHT22;5599;52.210;21.046;2022-11-20T14:38:52;1.00;1.00
11091;DHT22;5599;52.210;21.046;2022-11-20T14:41:24;0.90;1.00
11091;DHT22;5599;52.210;21.046;2022-11-20T14:43:56;0.90;1.00
11091;DHT22;5599;52.210;21.046;2022-11-20T14:46:28;1.00;1.00
11091;DHT22;5599;52.210;21.046;2022-11-20T14:49:01;0.90;99.90
11091;DHT22;5599;52.210;21.046;2022-11-20T14:51:36;0.90;99.90
11091;DHT22;5599;52.210;21.046;2022-11-20T14:54:14;0.80;1.00
11091;DHT22;5599;52.210;21.046;2022-11-20T14:56:54;0.80;1.00
11091;DHT22;5599;52.210;21.046;2022-11-20T14:59:26;0.80;1.00
11091;DHT22;5599;52.210;21.046;2022-11-20T15:01:58;0.90;1.00
11091;DHT22;5599;52.210;21.046;2022-11-20T15:04:30;0.80;1.00
11091;DHT22;5599;52.210;21.046;2022-11-20T15:07:01;0.70;99.90
11091;DHT22;5599;52.210;21.046;2022-11-20T15:09:33;0.80;99.90
11091;DHT22;5599;52.210;21.046;2022-11-20T15:12:03;0.70;98.50
11091;DHT22;5599;52.210;21.046;2022-11-20T15:14:36;0.60;1.00
11091;DHT22;5599;52.210;21.046;2022-11-20T15:17:07;0.60;1.00
11091;DHT22;5599;52.210;21.046;2022-11-20T15:19:39;0.60;99.90
11091;DHT22;5599;52.210;21.046;2022-11-20T15:22:11;0.50;99.90
11091;DHT22;5599;52.210;21.046;2022-11-20T15:24:46;0.40;99.90
11091;DHT22;5599;52.210;21.046;2022-11-20T15:27:16;0.40;1.00
11091;DHT22;5599;52.210;21.046;2022-11-20T15:29:46;0.30;1.00
11091;DHT22;5599;52.210;21.046;2022-11-20T15:32:16;0.30;99.90
11091;DHT22;5599;52.210;21.046;2022-11-20T15:34:47;0.20;1.00
11091;DHT22;5599;52.210;21.046;2022-11-20T15:37:18;0.30;99.90
11091;DHT22;5599;52.210;21.046;2022-11-20T15:39:55;0.30;61.20
11091;DHT22;5599;52.210;21.046;2022-11-20T15:42:25;0.20;99.90
11091;DHT22;5599;52.210;21.046;2022-11-20T15:44:56;0.20;99.90
11091;DHT22;5599;52.210;21.046;2022-11-20T15:47:28;0.30;1.00
11091;DHT22;5599;52.210;21.046;2022-11-20T15:50:00;0.10;93.00
11091;DHT22;5599;52.210;21.046;2022-11-20T15:52:30;0.00;1.00
11091;DHT22;5599;52.210;21.046;2022-11-20T15:55:11;0.00;99.90
11091;DHT22;5599;52.210;21.046;2022-11-20T15:57:42;0.10;99.90
11091;DHT22;5599;52.210;21.046;2022-11-20T16:00:15;0.10;99.20
11091;DHT22;5599;52.210;21.046;2022-11-20T16:02:50;0.10;1.00
11091;DHT22;5599;52.210;21.046;2022-11-20T16:05:21;0.10;1.00
11091;DHT22;5599;52.210;21.046;2022-11-20T16:07:56;0.00;1.00
11091;DHT22;5599;52.210;21.046;2022-11-20T16:10:28;-0.10;35.20
11091;DHT22;5599;52.210;21.046;2022-11-20T16:12:59;-0.20;1.00
11091;DHT22;5599;52.210;21.046;2022-11-20T16:15:51;-0.10;99.90
11091;DHT22;5599;52.210;21.046;2022-11-20T16:18:22;-0.10;48.60
11091;DHT22;5599;52.210;21.046;2022-11-20T16:20:54;-0.20;99.90
11091;DHT22;5599;52.210;21.046;2022-11-20T16:23:26;-0.30;1.00
11091;DHT22;5599;52.210;21.046;2022-11-20T16:25:59;-0.30;99.90
11091;DHT22;5599;52.210;21.046;2022-11-20T16:28:38;-0.50;99.90
11091;DHT22;5599;52.210;21.046;2022-11-20T16:31:10;-0.40;99.90
11091;DHT22;5599;52.210;21.046;2022-11-20T16:33:42;-0.40;1.00